sensor_id;sensor_type;location;lat;lon;timestamp;P1;durP1;ratioP1;P2;durP2;ratioP2
61322;SDS011;47203;48.428;11.974;2023-04-25T00:01:08;2.85;;;1.85;;
61322;SDS011;47203;48.428;11.974;2023-04-25T00:03:14;4.00;;;2.10;;
61322;SDS011;47203;48.428;11.974;2023-04-25T00:05:22;3.75;;;2.10;;
61322;SDS011;47203;48.428;11.974;2023-04-25T00:07:28;3.28;;;2.53;;
61322;SDS011;47203;48.428;11.974;2023-04-25T00:09:33;3.53;;;2.22;;
61322;SDS011;47203;48.428;11.974;2023-04-25T00:11:40;3.47;;;2.30;;
61322;SDS011;47203;48.428;11.974;2023-04-25T00:13:45;3.10;;;2.35;;
61322;SDS011;47203;48.428;11.974;2023-04-25T00:15:51;2.88;;;1.98;;
61322;SDS011;47203;48.428;11.974;2023-04-25T00:17:57;4.25;;;2.58;;
61322;SDS011;47203;48.428;11.974;2023-04-25T00:20:03;3.88;;;2.30;;
61322;SDS011;47203;48.428;11.974;2023-04-25T00:22:13;4.07;;;2.30;;
61322;SDS011;47203;48.428;11.974;2023-04-25T00:24:19;3.78;;;1.98;;
61322;SDS011;47203;48.428;11.974;2023-04-25T00:26:24;3.65;;;2.15;;
61322;SDS011;47203;48.428;11.974;2023-04-25T00:28:29;3.42;;;2.75;;
61322;SDS011;47203;48.428;11.974;2023-04-25T00:30:34;3.40;;;2.70;;
61322;SDS011;47203;48.428;11.974;2023-04-25T00:32:38;3.85;;;2.50;;
61322;SDS011;47203;48.428;11.974;2023-04-25T00:34:43;4.05;;;2.40;;
61322;SDS011;47203;48.428;11.974;2023-04-25T00:36:49;3.50;;;2.53;;
61322;SDS011;47203;48.428;11.974;2023-04-25T00:38:56;4.22;;;2.38;;
61322;SDS011;47203;48.428;11.974;2023-04-25T00:41:01;3.20;;;2.15;;
61322;SDS011;47203;48.428;11.974;2023-04-25T00:43:06;2.50;;;1.77;;
61322;SDS011;47203;48.428;11.974;2023-04-25T00:45:12;4.53;;;2.13;;
61322;SDS011;47203;48.428;11.974;2023-04-25T00:47:18;3.28;;;2.20;;
61322;SDS011;47203;48.428;11.974;2023-04-25T00:49:24;3.10;;;2.15;;
61322;SDS011;47203;48.428;11.974;2023-04-25T00:51:29;3.08;;;2.20;;
61322;SDS011;47203;48.428;11.974;2023-04-25T00:53:35;3.28;;;2.10;;
61322;SDS011;47203;48.428;11.974;2023-04-25T00:55:43;3.60;;;2.30;;
61322;SDS011;47203;48.428;11.974;2023-04-25T00:57:48;3.03;;;2.03;;
61322;SDS011;47203;48.428;11.974;2023-04-25T00:59:53;2.90;;;2.00;;
61322;SDS011;47203;48.428;11.974;2023-04-25T01:01:58;3.28;;;2.47;;
61322;SDS011;47203;48.428;11.974;2023-04-25T01:04:03;2.53;;;1.85;;
61322;SDS011;47203;48.428;11.974;2023-04-25T01:06:09;2.67;;;2.17;;
61322;SDS011;47203;48.428;11.974;2023-04-25T01:08:14;3.97;;;2.50;;
61322;SDS011;47203;48.428;11.974;2023-04-25T01:10:19;5.97;;;2.38;;
61322;SDS011;47203;48.428;11.974;2023-04-25T01:12:27;3.67;;;1.85;;
61322;SDS011;47203;48.428;11.974;2023-04-25T01:14:32;4.70;;;2.17;;
61322;SDS011;47203;48.428;11.974;2023-04-25T01:16:39;2.67;;;1.75;;
61322;SDS011;47203;48.428;11.974;2023-04-25T01:18:44;2.85;;;1.92;;
61322;SDS011;47203;48.428;11.974;2023-04-25T01:20:50;4.45;;;1.80;;
61322;SDS011;47203;48.428;11.974;2023-04-25T01:22:58;4.10;;;2.30;;
61322;SDS011;47203;48.428;11.974;2023-04-25T01:25:05;4.78;;;2.13;;
61322;SDS011;47203;48.428;11.974;2023-04-25T01:27:12;3.38;;;2.20;;
61322;SDS011;47203;48.428;11.974;2023-04-25T01:29:16;2.70;;;1.77;;
61322;SDS011;47203;48.428;11.974;2023-04-25T01:31:22;4.28;;;2.13;;
61322;SDS011;47203;48.428;11.974;2023-04-25T01:33:27;4.05;;;2.25;;
61322;SDS011;47203;48.428;11.974;2023-04-25T01:35:33;3.20;;;2.00;;
61322;SDS011;47203;48.428;11.974;2023-04-25T01:37:38;2.42;;;2.05;;
61322;SDS011;47203;48.428;11.974;2023-04-25T01:39:48;2.65;;;1.90;;
61322;SDS011;47203;48.428;11.974;2023-04-25T01:41:54;3.70;;;2.08;;
61322;SDS011;47203;48.428;11.974;2023-04-25T01:43:59;3.85;;;2.30;;
61322;SDS011;47203;48.428;11.974;2023-04-25T01:46:05;3.72;;;2.03;;
61322;SDS011;47203;48.428;11.974;2023-04-25T01:48:11;3.67;;;2.50;;
61322;SDS011;47203;48.428;11.974;2023-04-25T01:50:18;3.58;;;2.40;;
61322;SDS011;47203;48.428;11.974;2023-04-25T01:52:23;4.10;;;2.42;;
61322;SDS011;47203;48.428;11.974;2023-04-25T01:54:28;2.92;;;2.30;;
61322;SDS011;47203;48.428;11.974;2023-04-25T01:56:36;3.15;;;2.30;;
61322;SDS011;47203;48.428;11.974;2023-04-25T01:58:45;4.00;;;3.10;;
61322;SDS011;47203;48.428;11.974;2023-04-25T02:00:53;3.65;;;2.05;;
61322;SDS011;47203;48.428;11.974;2023-04-25T02:03:01;5.65;;;2.50;;
61322;SDS011;47203;48.428;11.974;2023-04-25T02:05:08;3.58;;;2.30;;
61322;SDS011;47203;48.428;11.974;2023-04-25T02:07:16;2.97;;;2.15;;
61322;SDS011;47203;48.428;11.974;2023-04-25T02:09:27;3.17;;;2.25;;
61322;SDS011;47203;48.428;11.974;2023-04-25T02:11:36;2.67;;;2.00;;
61322;SDS011;47203;48.428;11.974;2023-04-25T02:14:02;4.80;;;2.40;;
61322;SDS011;47203;48.428;11.974;2023-04-25T02:16:27;4.07;;;2.10;;
61322;SDS011;47203;48.428;11.974;2023-04-25T02:18:34;5.30;;;2.60;;
61322;SDS011;47203;48.428;11.974;2023-04-25T02:20:40;5.15;;;2.10;;
61322;SDS011;47203;48.428;11.974;2023-04-25T02:22:45;4.35;;;2.13;;
61322;SDS011;47203;48.428;11.974;2023-04-25T02:24:50;3.35;;;2.08;;
61322;SDS011;47203;48.428;11.974;2023-04-25T02:26:58;4.40;;;1.98;;
61322;SDS011;47203;48.428;11.974;2023-04-25T02:29:03;2.83;;;1.98;;
61322;SDS011;47203;48.428;11.974;2023-04-25T02:31:07;3.72;;;2.30;;
61322;SDS011;47203;48.428;11.974;2023-04-25T02:33:12;3.10;;;1.90;;
61322;SDS011;47203;48.428;11.974;2023-04-25T02:35:18;3.63;;;2.38;;
61322;SDS011;47203;48.428;11.974;2023-04-25T02:37:23;4.22;;;2.20;;
61322;SDS011;47203;48.428;11.974;2023-04-25T02:39:28;3.47;;;2.47;;
61322;SDS011;47203;48.428;11.974;2023-04-25T02:41:33;2.90;;;2.28;;
61322;SDS011;47203;48.428;11.974;2023-04-25T02:43:40;4.78;;;2.63;;
61322;SDS011;47203;48.428;11.974;2023-04-25T02:45:45;3.80;;;2.30;;
61322;SDS011;47203;48.428;11.974;2023-04-25T02:47:50;3.22;;;2.33;;
61322;SDS011;47203;48.428;11.974;2023-04-25T02:49:55;3.83;;;2.47;;
61322;SDS011;47203;48.428;11.974;2023-04-25T02:52:00;4.22;;;2.88;;
61322;SDS011;47203;48.428;11.974;2023-04-25T02:54:05;2.72;;;2.15;;
61322;SDS011;47203;48.428;11.974;2023-04-25T02:56:15;4.18;;;2.50;;
61322;SDS011;47203;48.428;11.974;2023-04-25T02:58:20;9.80;;;2.80;;
61322;SDS011;47203;48.428;11.974;2023-04-25T03:00:29;3.13;;;2.17;;
61322;SDS011;47203;48.428;11.974;2023-04-25T03:02:34;3.83;;;2.35;;
61322;SDS011;47203;48.428;11.974;2023-04-25T03:04:39;3.42;;;2.08;;
61322;SDS011;47203;48.428;11.974;2023-04-25T03:06:44;3.60;;;2.08;;
61322;SDS011;47203;48.428;11.974;2023-04-25T03:08:49;4.70;;;2.20;;
61322;SDS011;47203;48.428;11.974;2023-04-25T03:10:54;4.65;;;2.10;;
61322;SDS011;47203;48.428;11.974;2023-04-25T03:13:00;2.45;;;1.90;;
61322;SDS011;47203;48.428;11.974;2023-04-25T03:15:05;4.75;;;2.20;;
61322;SDS011;47203;48.428;11.974;2023-04-25T03:17:13;2.78;;;1.98;;
61322;SDS011;47203;48.428;11.974;2023-04-25T03:19:18;3.63;;;2.28;;
61322;SDS011;47203;48.428;11.974;2023-04-25T03:21:23;3.72;;;2.17;;
61322;SDS011;47203;48.428;11.974;2023-04-25T03:23:28;5.30;;;2.70;;
61322;SDS011;47203;48.428;11.974;2023-04-25T03:25:33;4.55;;;2.72;;
61322;SDS011;47203;48.428;11.974;2023-04-25T03:27:38;3.85;;;2.70;;
61322;SDS011;47203;48.428;11.974;2023-04-25T03:29:43;3.53;;;2.13;;
61322;SDS011;47203;48.428;11.974;2023-04-25T03:31:48;3.65;;;2.15;;
61322;SDS011;47203;48.428;11.974;2023-04-25T03:33:56;3.90;;;2.30;;
61322;SDS011;47203;48.428;11.974;2023-04-25T03:36:01;4.85;;;2.05;;
61322;SDS011;47203;48.428;11.974;2023-04-25T03:38:06;4.32;;;2.08;;
61322;SDS011;47203;48.428;11.974;2023-04-25T03:40:13;4.47;;;2.65;;
61322;SDS011;47203;48.428;11.974;2023-04-25T03:42:38;6.97;;;2.35;;
61322;SDS011;47203;48.428;11.974;2023-04-25T03:44:45;3.50;;;2.40;;
61322;SDS011;47203;48.428;11.974;2023-04-25T03:46:51;3.42;;;2.35;;
61322;SDS011;47203;48.428;11.974;2023-04-25T03:49:00;5.47;;;2.08;;
61322;SDS011;47203;48.428;11.974;2023-04-25T03:51:25;3.63;;;2.47;;
61322;SDS011;47203;48.428;11.974;2023-04-25T03:53:30;5.82;;;2.72;;
61322;SDS011;47203;48.428;11.974;2023-04-25T03:55:57;5.22;;;2.88;;
61322;SDS011;47203;48.428;11.974;2023-04-25T03:58:06;4.13;;;2.88;;
61322;SDS011;47203;48.428;11.974;2023-04-25T04:00:12;4.40;;;2.53;;
61322;SDS011;47203;48.428;11.974;2023-04-25T04:02:18;4.03;;;2.88;;
61322;SDS011;47203;48.428;11.974;2023-04-25T04:04:28;7.43;;;3.47;;
61322;SDS011;47203;48.428;11.974;2023-04-25T04:06:34;3.40;;;2.33;;
61322;SDS011;47203;48.428;11.974;2023-04-25T04:08:47;5.82;;;2.70;;
61322;SDS011;47203;48.428;11.974;2023-04-25T04:10:51;2.72;;;2.15;;
61322;SDS011;47203;48.428;11.974;2023-04-25T04:12:57;4.28;;;2.20;;
61322;SDS011;47203;48.428;11.974;2023-04-25T04:15:03;4.18;;;2.05;;
61322;SDS011;47203;48.428;11.974;2023-04-25T04:17:09;3.85;;;1.88;;
61322;SDS011;47203;48.428;11.974;2023-04-25T04:19:14;3.72;;;2.20;;
61322;SDS011;47203;48.428;11.974;2023-04-25T04:21:28;3.47;;;2.58;;
61322;SDS011;47203;48.428;11.974;2023-04-25T04:23:35;2.90;;;2.15;;
61322;SDS011;47203;48.428;11.974;2023-04-25T04:25:42;3.25;;;2.22;;
61322;SDS011;47203;48.428;11.974;2023-04-25T04:28:13;4.22;;;2.63;;
61322;SDS011;47203;48.428;11.974;2023-04-25T04:30:28;3.95;;;2.13;;
61322;SDS011;47203;48.428;11.974;2023-04-25T04:32:38;2.90;;;2.13;;
61322;SDS011;47203;48.428;11.974;2023-04-25T04:34:43;3.58;;;2.22;;
61322;SDS011;47203;48.428;11.974;2023-04-25T04:36:52;6.35;;;2.50;;
61322;SDS011;47203;48.428;11.974;2023-04-25T04:38:57;4.47;;;2.40;;
61322;SDS011;47203;48.428;11.974;2023-04-25T04:41:12;3.38;;;2.40;;
61322;SDS011;47203;48.428;11.974;2023-04-25T04:43:43;3.67;;;2.40;;
61322;SDS011;47203;48.428;11.974;2023-04-25T04:46:06;4.40;;;2.90;;
61322;SDS011;47203;48.428;11.974;2023-04-25T04:48:47;4.70;;;2.58;;
61322;SDS011;47203;48.428;11.974;2023-04-25T04:50:59;4.75;;;2.83;;
61322;SDS011;47203;48.428;11.974;2023-04-25T04:53:25;5.45;;;2.83;;
61322;SDS011;47203;48.428;11.974;2023-04-25T04:55:42;5.03;;;2.72;;
61322;SDS011;47203;48.428;11.974;2023-04-25T04:58:07;6.18;;;2.35;;
61322;SDS011;47203;48.428;11.974;2023-04-25T05:00:22;4.22;;;2.70;;
61322;SDS011;47203;48.428;11.974;2023-04-25T05:02:42;3.83;;;2.75;;
61322;SDS011;47203;48.428;11.974;2023-04-25T05:05:13;4.55;;;3.00;;
61322;SDS011;47203;48.428;11.974;2023-04-25T05:07:44;3.22;;;2.40;;
61322;SDS011;47203;48.428;11.974;2023-04-25T05:10:27;4.65;;;2.60;;
61322;SDS011;47203;48.428;11.974;2023-04-25T05:12:55;4.88;;;3.15;;
61322;SDS011;47203;48.428;11.974;2023-04-25T05:15:35;3.95;;;2.60;;
61322;SDS011;47203;48.428;11.974;2023-04-25T05:18:01;5.32;;;3.05;;
61322;SDS011;47203;48.428;11.974;2023-04-25T05:20:27;4.28;;;2.72;;
61322;SDS011;47203;48.428;11.974;2023-04-25T05:22:47;6.20;;;2.95;;
61322;SDS011;47203;48.428;11.974;2023-04-25T05:24:57;4.50;;;2.33;;
61322;SDS011;47203;48.428;11.974;2023-04-25T05:27:24;3.20;;;2.28;;
61322;SDS011;47203;48.428;11.974;2023-04-25T05:30:07;4.22;;;2.78;;
61322;SDS011;47203;48.428;11.974;2023-04-25T05:32:29;3.30;;;2.45;;
61322;SDS011;47203;48.428;11.974;2023-04-25T05:34:34;4.13;;;2.65;;
61322;SDS011;47203;48.428;11.974;2023-04-25T05:36:45;3.92;;;2.75;;
61322;SDS011;47203;48.428;11.974;2023-04-25T05:38:53;4.22;;;2.58;;
61322;SDS011;47203;48.428;11.974;2023-04-25T05:41:18;3.30;;;2.33;;
61322;SDS011;47203;48.428;11.974;2023-04-25T05:43:35;3.08;;;2.25;;
61322;SDS011;47203;48.428;11.974;2023-04-25T05:46:03;3.40;;;2.20;;
61322;SDS011;47203;48.428;11.974;2023-04-25T05:48:19;3.15;;;2.10;;
61322;SDS011;47203;48.428;11.974;2023-04-25T05:50:52;3.22;;;2.38;;
61322;SDS011;47203;48.428;11.974;2023-04-25T05:53:26;2.60;;;1.92;;
61322;SDS011;47203;48.428;11.974;2023-04-25T05:55:34;3.53;;;1.95;;
61322;SDS011;47203;48.428;11.974;2023-04-25T05:57:53;4.13;;;1.98;;
61322;SDS011;47203;48.428;11.974;2023-04-25T06:00:02;3.53;;;2.22;;
61322;SDS011;47203;48.428;11.974;2023-04-25T06:02:18;5.57;;;1.98;;
61322;SDS011;47203;48.428;11.974;2023-04-25T06:04:25;5.07;;;1.70;;
61322;SDS011;47203;48.428;11.974;2023-04-25T06:06:30;5.82;;;2.40;;
61322;SDS011;47203;48.428;11.974;2023-04-25T06:08:35;5.25;;;2.53;;
61322;SDS011;47203;48.428;11.974;2023-04-25T06:10:40;4.95;;;1.85;;
61322;SDS011;47203;48.428;11.974;2023-04-25T06:12:45;7.10;;;3.63;;
61322;SDS011;47203;48.428;11.974;2023-04-25T06:14:58;4.47;;;2.03;;
61322;SDS011;47203;48.428;11.974;2023-04-25T06:17:11;3.53;;;1.75;;
61322;SDS011;47203;48.428;11.974;2023-04-25T06:19:16;4.75;;;1.83;;
61322;SDS011;47203;48.428;11.974;2023-04-25T06:21:21;5.40;;;1.65;;
61322;SDS011;47203;48.428;11.974;2023-04-25T06:23:26;4.72;;;2.83;;
61322;SDS011;47203;48.428;11.974;2023-04-25T06:25:38;6.15;;;3.55;;
61322;SDS011;47203;48.428;11.974;2023-04-25T06:27:42;5.72;;;3.08;;
61322;SDS011;47203;48.428;11.974;2023-04-25T06:29:47;7.05;;;3.38;;
61322;SDS011;47203;48.428;11.974;2023-04-25T06:31:52;5.10;;;2.60;;
61322;SDS011;47203;48.428;11.974;2023-04-25T06:34:00;4.07;;;1.85;;
61322;SDS011;47203;48.428;11.974;2023-04-25T06:36:10;3.53;;;2.00;;
61322;SDS011;47203;48.428;11.974;2023-04-25T06:38:19;3.05;;;2.08;;
61322;SDS011;47203;48.428;11.974;2023-04-25T06:40:26;4.35;;;2.08;;
61322;SDS011;47203;48.428;11.974;2023-04-25T06:42:31;4.93;;;2.28;;
61322;SDS011;47203;48.428;11.974;2023-04-25T06:44:57;3.13;;;1.63;;
61322;SDS011;47203;48.428;11.974;2023-04-25T06:47:03;2.97;;;1.75;;
61322;SDS011;47203;48.428;11.974;2023-04-25T06:49:11;2.42;;;1.58;;
61322;SDS011;47203;48.428;11.974;2023-04-25T06:51:16;3.17;;;1.73;;
61322;SDS011;47203;48.428;11.974;2023-04-25T06:53:26;2.97;;;1.73;;
61322;SDS011;47203;48.428;11.974;2023-04-25T06:55:34;3.25;;;2.00;;
61322;SDS011;47203;48.428;11.974;2023-04-25T06:57:46;3.08;;;1.80;;
61322;SDS011;47203;48.428;11.974;2023-04-25T07:00:15;2.50;;;1.70;;
61322;SDS011;47203;48.428;11.974;2023-04-25T07:02:21;2.33;;;1.58;;
61322;SDS011;47203;48.428;11.974;2023-04-25T07:04:30;2.67;;;1.63;;
61322;SDS011;47203;48.428;11.974;2023-04-25T07:06:39;2.50;;;1.58;;
61322;SDS011;47203;48.428;11.974;2023-04-25T07:08:45;3.40;;;2.33;;
61322;SDS011;47203;48.428;11.974;2023-04-25T07:10:51;3.80;;;1.75;;
61322;SDS011;47203;48.428;11.974;2023-04-25T07:12:56;2.20;;;1.50;;
61322;SDS011;47203;48.428;11.974;2023-04-25T07:15:01;3.55;;;1.95;;
61322;SDS011;47203;48.428;11.974;2023-04-25T07:17:09;3.40;;;1.95;;
61322;SDS011;47203;48.428;11.974;2023-04-25T07:19:14;3.75;;;1.92;;
61322;SDS011;47203;48.428;11.974;2023-04-25T07:21:21;4.35;;;2.15;;
61322;SDS011;47203;48.428;11.974;2023-04-25T07:23:27;3.05;;;2.28;;
61322;SDS011;47203;48.428;11.974;2023-04-25T07:25:35;3.42;;;2.00;;
61322;SDS011;47203;48.428;11.974;2023-04-25T07:27:40;4.30;;;1.80;;
61322;SDS011;47203;48.428;11.974;2023-04-25T07:29:51;2.60;;;1.60;;
61322;SDS011;47203;48.428;11.974;2023-04-25T07:31:57;3.10;;;1.80;;
61322;SDS011;47203;48.428;11.974;2023-04-25T07:34:02;2.92;;;1.80;;
61322;SDS011;47203;48.428;11.974;2023-04-25T07:36:07;3.40;;;1.83;;
61322;SDS011;47203;48.428;11.974;2023-04-25T07:38:16;2.85;;;1.80;;
61322;SDS011;47203;48.428;11.974;2023-04-25T07:40:24;2.88;;;1.88;;
61322;SDS011;47203;48.428;11.974;2023-04-25T07:42:35;2.45;;;1.40;;
61322;SDS011;47203;48.428;11.974;2023-04-25T07:44:41;3.58;;;1.40;;
61322;SDS011;47203;48.428;11.974;2023-04-25T07:46:48;4.32;;;1.85;;
61322;SDS011;47203;48.428;11.974;2023-04-25T07:48:54;2.50;;;1.33;;
61322;SDS011;47203;48.428;11.974;2023-04-25T07:50:59;2.25;;;1.23;;
61322;SDS011;47203;48.428;11.974;2023-04-25T07:53:08;1.85;;;1.05;;
61322;SDS011;47203;48.428;11.974;2023-04-25T07:55:23;2.60;;;1.17;;
61322;SDS011;47203;48.428;11.974;2023-04-25T07:57:36;3.38;;;1.70;;
61322;SDS011;47203;48.428;11.974;2023-04-25T07:59:42;3.25;;;1.60;;
61322;SDS011;47203;48.428;11.974;2023-04-25T08:01:47;1.75;;;1.38;;
61322;SDS011;47203;48.428;11.974;2023-04-25T08:03:54;2.35;;;1.42;;
61322;SDS011;47203;48.428;11.974;2023-04-25T08:06:16;2.10;;;1.40;;
61322;SDS011;47203;48.428;11.974;2023-04-25T08:10:50;2.60;;;1.58;;
61322;SDS011;47203;48.428;11.974;2023-04-25T08:12:56;2.42;;;1.65;;
61322;SDS011;47203;48.428;11.974;2023-04-25T08:15:01;2.47;;;1.55;;
61322;SDS011;47203;48.428;11.974;2023-04-25T08:17:09;8.18;;;1.98;;
61322;SDS011;47203;48.428;11.974;2023-04-25T08:19:15;3.65;;;1.60;;
61322;SDS011;47203;48.428;11.974;2023-04-25T08:21:21;2.53;;;1.20;;
61322;SDS011;47203;48.428;11.974;2023-04-25T08:23:30;2.25;;;1.30;;
61322;SDS011;47203;48.428;11.974;2023-04-25T08:25:38;4.07;;;1.50;;
61322;SDS011;47203;48.428;11.974;2023-04-25T08:27:48;3.15;;;1.70;;
61322;SDS011;47203;48.428;11.974;2023-04-25T08:29:56;1.92;;;1.45;;
61322;SDS011;47203;48.428;11.974;2023-04-25T08:32:01;3.63;;;1.80;;
61322;SDS011;47203;48.428;11.974;2023-04-25T08:34:10;3.40;;;1.65;;
61322;SDS011;47203;48.428;11.974;2023-04-25T08:36:17;3.88;;;1.90;;
61322;SDS011;47203;48.428;11.974;2023-04-25T08:38:50;3.43;;;1.67;;
61322;SDS011;47203;48.428;11.974;2023-04-25T08:40:57;4.05;;;2.15;;
61322;SDS011;47203;48.428;11.974;2023-04-25T08:43:09;3.60;;;1.92;;
61322;SDS011;47203;48.428;11.974;2023-04-25T08:45:17;4.63;;;2.05;;
61322;SDS011;47203;48.428;11.974;2023-04-25T08:47:23;5.75;;;2.10;;
61322;SDS011;47203;48.428;11.974;2023-04-25T08:49:31;3.28;;;1.90;;
61322;SDS011;47203;48.428;11.974;2023-04-25T08:51:43;4.95;;;2.40;;
61322;SDS011;47203;48.428;11.974;2023-04-25T08:53:56;4.45;;;2.25;;
61322;SDS011;47203;48.428;11.974;2023-04-25T08:56:20;3.28;;;1.92;;
61322;SDS011;47203;48.428;11.974;2023-04-25T08:58:28;6.13;;;2.22;;
61322;SDS011;47203;48.428;11.974;2023-04-25T09:00:34;2.65;;;1.80;;
61322;SDS011;47203;48.428;11.974;2023-04-25T09:02:39;4.22;;;2.05;;
61322;SDS011;47203;48.428;11.974;2023-04-25T09:04:46;4.85;;;1.90;;
61322;SDS011;47203;48.428;11.974;2023-04-25T09:06:52;3.35;;;1.65;;
61322;SDS011;47203;48.428;11.974;2023-04-25T09:09:00;5.28;;;2.33;;
61322;SDS011;47203;48.428;11.974;2023-04-25T09:11:08;3.13;;;1.75;;
61322;SDS011;47203;48.428;11.974;2023-04-25T09:13:14;2.22;;;1.60;;
61322;SDS011;47203;48.428;11.974;2023-04-25T09:16:00;4.60;;;1.92;;
61322;SDS011;47203;48.428;11.974;2023-04-25T09:18:16;3.65;;;1.95;;
61322;SDS011;47203;48.428;11.974;2023-04-25T09:20:31;3.70;;;1.95;;
61322;SDS011;47203;48.428;11.974;2023-04-25T09:23:02;2.17;;;1.45;;
61322;SDS011;47203;48.428;11.974;2023-04-25T09:25:11;4.50;;;1.75;;
61322;SDS011;47203;48.428;11.974;2023-04-25T09:27:19;3.03;;;1.70;;
61322;SDS011;47203;48.428;11.974;2023-04-25T09:29:40;3.22;;;2.22;;
61322;SDS011;47203;48.428;11.974;2023-04-25T09:31:49;2.03;;;1.40;;
61322;SDS011;47203;48.428;11.974;2023-04-25T09:33:58;2.38;;;1.30;;
61322;SDS011;47203;48.428;11.974;2023-04-25T09:36:12;1.67;;;1.30;;
61322;SDS011;47203;48.428;11.974;2023-04-25T09:38:53;1.67;;;1.20;;
61322;SDS011;47203;48.428;11.974;2023-04-25T09:41:03;1.90;;;1.10;;
61322;SDS011;47203;48.428;11.974;2023-04-25T09:43:18;2.65;;;1.10;;
61322;SDS011;47203;48.428;11.974;2023-04-25T09:45:25;2.50;;;1.00;;
61322;SDS011;47203;48.428;11.974;2023-04-25T09:47:32;2.50;;;1.45;;
61322;SDS011;47203;48.428;11.974;2023-04-25T09:49:43;2.55;;;1.38;;
61322;SDS011;47203;48.428;11.974;2023-04-25T09:51:55;3.33;;;1.45;;
61322;SDS011;47203;48.428;11.974;2023-04-25T09:54:06;2.65;;;1.15;;
61322;SDS011;47203;48.428;11.974;2023-04-25T09:58:24;1.23;;;0.95;;
61322;SDS011;47203;48.428;11.974;2023-04-25T10:00:32;4.00;;;1.65;;
61322;SDS011;47203;48.428;11.974;2023-04-25T10:02:53;2.28;;;1.30;;
61322;SDS011;47203;48.428;11.974;2023-04-25T10:05:20;2.20;;;1.35;;
61322;SDS011;47203;48.428;11.974;2023-04-25T10:07:29;2.83;;;1.77;;
61322;SDS011;47203;48.428;11.974;2023-04-25T10:09:36;2.20;;;1.50;;
61322;SDS011;47203;48.428;11.974;2023-04-25T10:11:42;3.30;;;1.42;;
61322;SDS011;47203;48.428;11.974;2023-04-25T10:13:49;2.63;;;1.92;;
61322;SDS011;47203;48.428;11.974;2023-04-25T10:15:54;2.78;;;1.98;;
61322;SDS011;47203;48.428;11.974;2023-04-25T10:18:16;3.45;;;1.58;;
61322;SDS011;47203;48.428;11.974;2023-04-25T10:20:22;3.78;;;1.92;;
61322;SDS011;47203;48.428;11.974;2023-04-25T10:22:29;2.90;;;1.60;;
61322;SDS011;47203;48.428;11.974;2023-04-25T10:24:38;4.43;;;1.92;;
61322;SDS011;47203;48.428;11.974;2023-04-25T10:26:43;2.63;;;1.75;;
61322;SDS011;47203;48.428;11.974;2023-04-25T10:28:58;3.42;;;1.80;;
61322;SDS011;47203;48.428;11.974;2023-04-25T10:31:04;3.15;;;1.80;;
61322;SDS011;47203;48.428;11.974;2023-04-25T10:33:18;3.03;;;1.75;;
61322;SDS011;47203;48.428;11.974;2023-04-25T10:35:34;3.40;;;1.95;;
61322;SDS011;47203;48.428;11.974;2023-04-25T10:37:38;2.88;;;2.15;;
61322;SDS011;47203;48.428;11.974;2023-04-25T10:40:07;3.88;;;1.92;;
61322;SDS011;47203;48.428;11.974;2023-04-25T10:42:13;4.72;;;2.20;;
61322;SDS011;47203;48.428;11.974;2023-04-25T10:44:19;3.58;;;1.80;;
61322;SDS011;47203;48.428;11.974;2023-04-25T10:46:24;3.10;;;1.95;;
61322;SDS011;47203;48.428;11.974;2023-04-25T10:48:34;4.93;;;2.13;;
61322;SDS011;47203;48.428;11.974;2023-04-25T10:50:38;4.78;;;2.50;;
61322;SDS011;47203;48.428;11.974;2023-04-25T10:52:43;3.10;;;2.10;;
61322;SDS011;47203;48.428;11.974;2023-04-25T10:54:51;3.25;;;1.77;;
61322;SDS011;47203;48.428;11.974;2023-04-25T10:56:58;3.35;;;2.10;;
61322;SDS011;47203;48.428;11.974;2023-04-25T10:59:04;3.67;;;2.10;;
61322;SDS011;47203;48.428;11.974;2023-04-25T11:01:12;4.18;;;2.67;;
61322;SDS011;47203;48.428;11.974;2023-04-25T11:03:17;3.83;;;2.13;;
61322;SDS011;47203;48.428;11.974;2023-04-25T11:05:34;2.60;;;1.73;;
61322;SDS011;47203;48.428;11.974;2023-04-25T11:07:55;2.15;;;1.48;;
61322;SDS011;47203;48.428;11.974;2023-04-25T11:10:08;2.67;;;1.50;;
61322;SDS011;47203;48.428;11.974;2023-04-25T11:12:13;1.98;;;1.50;;
61322;SDS011;47203;48.428;11.974;2023-04-25T11:14:19;2.42;;;1.67;;
61322;SDS011;47203;48.428;11.974;2023-04-25T11:16:24;2.25;;;1.63;;
61322;SDS011;47203;48.428;11.974;2023-04-25T11:18:29;2.30;;;1.60;;
61322;SDS011;47203;48.428;11.974;2023-04-25T11:20:38;2.03;;;1.63;;
61322;SDS011;47203;48.428;11.974;2023-04-25T11:22:44;2.60;;;1.45;;
61322;SDS011;47203;48.428;11.974;2023-04-25T11:24:53;3.67;;;1.73;;
61322;SDS011;47203;48.428;11.974;2023-04-25T11:26:58;2.28;;;1.60;;
61322;SDS011;47203;48.428;11.974;2023-04-25T11:29:04;2.08;;;1.60;;
61322;SDS011;47203;48.428;11.974;2023-04-25T11:31:09;2.20;;;1.60;;
61322;SDS011;47203;48.428;11.974;2023-04-25T11:33:13;1.70;;;1.40;;
61322;SDS011;47203;48.428;11.974;2023-04-25T11:35:18;1.90;;;1.60;;
61322;SDS011;47203;48.428;11.974;2023-04-25T11:37:27;2.03;;;1.10;;
61322;SDS011;47203;48.428;11.974;2023-04-25T11:39:32;1.60;;;1.23;;
61322;SDS011;47203;48.428;11.974;2023-04-25T11:41:37;2.22;;;1.42;;
61322;SDS011;47203;48.428;11.974;2023-04-25T11:43:44;2.72;;;1.50;;
61322;SDS011;47203;48.428;11.974;2023-04-25T11:45:50;1.23;;;1.05;;
61322;SDS011;47203;48.428;11.974;2023-04-25T11:47:56;2.08;;;1.52;;
61322;SDS011;47203;48.428;11.974;2023-04-25T11:50:01;1.85;;;1.42;;
61322;SDS011;47203;48.428;11.974;2023-04-25T11:52:07;1.70;;;1.38;;
61322;SDS011;47203;48.428;11.974;2023-04-25T11:54:15;2.42;;;1.63;;
61322;SDS011;47203;48.428;11.974;2023-04-25T11:56:20;2.10;;;1.20;;
61322;SDS011;47203;48.428;11.974;2023-04-25T11:58:26;1.67;;;1.23;;
61322;SDS011;47203;48.428;11.974;2023-04-25T12:00:31;1.52;;;1.20;;
61322;SDS011;47203;48.428;11.974;2023-04-25T12:02:36;2.03;;;1.00;;
61322;SDS011;47203;48.428;11.974;2023-04-25T12:04:41;1.60;;;0.90;;
61322;SDS011;47203;48.428;11.974;2023-04-25T12:06:47;0.93;;;0.70;;
61322;SDS011;47203;48.428;11.974;2023-04-25T12:09:00;1.23;;;0.70;;
61322;SDS011;47203;48.428;11.974;2023-04-25T12:11:19;1.20;;;0.85;;
61322;SDS011;47203;48.428;11.974;2023-04-25T12:13:26;0.80;;;0.55;;
61322;SDS011;47203;48.428;11.974;2023-04-25T12:15:31;1.70;;;0.80;;
61322;SDS011;47203;48.428;11.974;2023-04-25T12:17:38;1.02;;;0.80;;
61322;SDS011;47203;48.428;11.974;2023-04-25T12:19:46;1.80;;;0.80;;
61322;SDS011;47203;48.428;11.974;2023-04-25T12:21:51;2.75;;;1.10;;
61322;SDS011;47203;48.428;11.974;2023-04-25T12:24:08;3.97;;;1.38;;
61322;SDS011;47203;48.428;11.974;2023-04-25T12:26:14;1.70;;;0.77;;
61322;SDS011;47203;48.428;11.974;2023-04-25T12:28:24;1.85;;;1.15;;
61322;SDS011;47203;48.428;11.974;2023-04-25T12:30:29;2.50;;;1.70;;
61322;SDS011;47203;48.428;11.974;2023-04-25T12:32:34;3.05;;;1.98;;
61322;SDS011;47203;48.428;11.974;2023-04-25T12:34:39;2.58;;;1.77;;
61322;SDS011;47203;48.428;11.974;2023-04-25T12:36:45;3.00;;;2.00;;
61322;SDS011;47203;48.428;11.974;2023-04-25T12:38:50;3.65;;;1.65;;
61322;SDS011;47203;48.428;11.974;2023-04-25T12:40:55;3.25;;;1.92;;
61322;SDS011;47203;48.428;11.974;2023-04-25T12:43:02;2.50;;;1.75;;
61322;SDS011;47203;48.428;11.974;2023-04-25T12:45:09;3.17;;;1.60;;
61322;SDS011;47203;48.428;11.974;2023-04-25T12:47:14;2.08;;;1.75;;
61322;SDS011;47203;48.428;11.974;2023-04-25T12:49:19;2.95;;;1.90;;
61322;SDS011;47203;48.428;11.974;2023-04-25T12:51:24;3.10;;;2.33;;
61322;SDS011;47203;48.428;11.974;2023-04-25T12:53:30;2.85;;;1.73;;